createdAt,value
2022-08-28T00:00:26.420Z,35.72
2022-08-28T00:01:44.039Z,35.67
2022-08-28T00:02:52.054Z,35.38
2022-08-28T00:04:01.517Z,35.41
2022-08-28T00:05:10.642Z,35.49
2022-08-28T00:06:20.712Z,35.40
2022-08-28T00:07:28.640Z,35.31
2022-08-28T00:08:36.480Z,35.34
2022-08-28T00:09:43.775Z,35.35
2022-08-28T00:10:51.761Z,35.37
2022-08-28T00:12:00.257Z,35.33
2022-08-28T00:13:09.581Z,35.28
2022-08-28T00:14:21.039Z,35.30
2022-08-28T00:15:32.924Z,35.42
2022-08-28T00:16:40.061Z,35.38
2022-08-28T00:17:47.951Z,35.22
2022-08-28T00:18:56.897Z,35.37
2022-08-28T00:20:06.231Z,35.48
2022-08-28T00:21:14.303Z,35.35
2022-08-28T00:22:21.583Z,35.18
2022-08-28T00:23:36.958Z,35.31
2022-08-28T00:24:50.504Z,35.31
2022-08-28T00:26:02.681Z,35.24
2022-08-28T00:27:28.604Z,34.94
2022-08-28T00:28:35.987Z,34.74
2022-08-28T00:29:42.788Z,34.89
2022-08-28T00:30:51.897Z,34.92
2022-08-28T00:31:59.200Z,34.67
2022-08-28T00:33:09.429Z,34.68
2022-08-28T00:34:17.847Z,34.55
2022-08-28T00:35:27.336Z,34.66
2022-08-28T00:36:35.121Z,34.64
2022-08-28T00:37:41.827Z,34.44
2022-08-28T00:38:48.915Z,34.27
2022-08-28T00:39:55.991Z,34.12
2022-08-28T00:41:05.033Z,34.12
2022-08-28T00:42:12.158Z,34.19
2022-08-28T00:43:37.625Z,34.17
2022-08-28T00:44:46.519Z,34.06
2022-08-28T00:45:53.570Z,33.95
2022-08-28T00:47:00.915Z,34.00
2022-08-28T00:48:08.361Z,33.88
2022-08-28T00:49:16.515Z,33.80
2022-08-28T00:50:24.957Z,33.92
2022-08-28T00:51:50.185Z,33.68
2022-08-28T00:53:01.476Z,33.41
2022-08-28T00:54:08.743Z,33.13
2022-08-28T00:55:21.261Z,32.95
2022-08-28T00:56:28.554Z,32.91
2022-08-28T00:57:56.874Z,32.80
2022-08-28T00:59:07.532Z,32.65
2022-08-28T01:00:18.697Z,32.55
2022-08-28T01:01:26.735Z,32.54
2022-08-28T01:02:34.313Z,32.40
2022-08-28T01:03:41.389Z,32.36
2022-08-28T01:04:49.762Z,32.38
2022-08-28T01:05:57.421Z,32.44
2022-08-28T01:07:07.520Z,32.43
2022-08-28T01:08:15.293Z,32.39
2022-08-28T01:09:27.134Z,32.37
2022-08-28T01:10:34.668Z,32.52
2022-08-28T01:11:42.990Z,32.45
2022-08-28T01:12:51.695Z,32.27
2022-08-28T01:14:01.916Z,32.18
2022-08-28T01:15:13.954Z,32.22
2022-08-28T01:16:21.305Z,32.37
2022-08-28T01:17:30.074Z,32.42
2022-08-28T01:18:37.384Z,32.46
2022-08-28T01:19:53.875Z,32.38
2022-08-28T01:21:26.479Z,32.37
2022-08-28T01:22:39.895Z,32.31
2022-08-28T01:23:49.401Z,32.41
2022-08-28T01:24:59.777Z,32.36
2022-08-28T01:26:11.706Z,32.25
2022-08-28T01:27:19.647Z,32.29
2022-08-28T01:28:29.479Z,32.19
2022-08-28T01:29:38.303Z,32.07
2022-08-28T01:30:46.740Z,32.05
2022-08-28T01:31:54.008Z,32.00
2022-08-28T01:33:01.127Z,31.92
2022-08-28T01:34:08.795Z,31.90
2022-08-28T01:35:19.940Z,31.75
2022-08-28T01:36:28.349Z,31.63
2022-08-28T01:37:36.394Z,31.70
2022-08-28T01:38:44.069Z,31.63
2022-08-28T01:39:51.916Z,31.53
2022-08-28T01:41:01.251Z,31.56
2022-08-28T01:42:10.669Z,31.44
2022-08-28T01:43:23.768Z,31.29
2022-08-28T01:44:31.421Z,31.15
2022-08-28T01:45:39.298Z,31.02
2022-08-28T01:46:47.584Z,30.95
2022-08-28T01:47:56.278Z,30.86
2022-08-28T01:49:04.618Z,30.76
2022-08-28T01:50:15.173Z,30.71
2022-08-28T01:51:24.714Z,30.61
2022-08-28T01:52:33.196Z,30.49
2022-08-28T01:53:40.994Z,30.50
2022-08-28T01:54:48.604Z,30.47
2022-08-28T01:55:57.746Z,30.39
2022-08-28T01:57:06.591Z,30.31
2022-08-28T01:58:15.354Z,30.22
2022-08-28T01:59:27.350Z,30.12
2022-08-28T02:00:36.935Z,29.93
2022-08-28T02:01:45.361Z,29.81
2022-08-28T02:02:53.745Z,29.66
2022-08-28T02:04:06.478Z,29.47
2022-08-28T02:05:15.548Z,29.26
2022-08-28T02:06:23.706Z,29.13
2022-08-28T02:07:31.730Z,29.02
2022-08-28T02:08:38.902Z,28.87
2022-08-28T02:09:46.006Z,28.69
2022-08-28T02:10:53.962Z,28.52
2022-08-28T02:12:01.110Z,28.29
2022-08-28T02:13:09.461Z,28.09
2022-08-28T02:14:18.448Z,27.89
2022-08-28T02:15:26.957Z,27.75
2022-08-28T02:16:34.367Z,27.59
2022-08-28T02:17:41.639Z,27.43
2022-08-28T02:18:50.452Z,27.29
2022-08-28T02:19:57.881Z,27.16
2022-08-28T02:21:06.415Z,27.06
2022-08-28T02:22:15.287Z,26.96
2022-08-28T02:23:23.520Z,26.86
2022-08-28T02:24:31.462Z,26.77
2022-08-28T02:25:39.041Z,26.67
2022-08-28T02:26:47.382Z,26.60
2022-08-28T02:27:56.496Z,26.52
2022-08-28T02:29:05.294Z,26.44
2022-08-28T02:30:14.084Z,26.38
2022-08-28T02:31:22.645Z,26.29
2022-08-28T02:32:31.675Z,26.20
2022-08-28T02:33:42.914Z,26.12
2022-08-28T02:34:51.219Z,26.05
2022-08-28T02:36:00.574Z,25.99
2022-08-28T02:37:10.339Z,25.93
2022-08-28T02:38:19.359Z,25.86
2022-08-28T02:39:27.682Z,25.80
2022-08-28T02:40:35.229Z,25.75
2022-08-28T02:41:42.226Z,25.69
2022-08-28T02:42:50.183Z,25.63
2022-08-28T02:43:58.734Z,25.57
2022-08-28T02:45:08.166Z,25.52
2022-08-28T02:46:16.704Z,25.47
2022-08-28T02:47:24.667Z,25.41
2022-08-28T02:48:36.271Z,25.37
2022-08-28T02:49:44.200Z,25.32
2022-08-28T02:50:51.844Z,25.26
2022-08-28T02:52:01.292Z,25.20
2022-08-28T02:53:09.991Z,25.14
2022-08-28T02:54:18.559Z,25.08
2022-08-28T02:55:28.628Z,25.05
2022-08-28T02:56:38.990Z,24.99
2022-08-28T02:57:46.811Z,24.96
2022-08-28T02:58:55.343Z,24.93
2022-08-28T03:00:08.651Z,24.88
2022-08-28T03:01:17.499Z,24.84
2022-08-28T03:02:26.655Z,24.80
2022-08-28T03:03:34.319Z,24.78
2022-08-28T03:04:42.815Z,24.75
2022-08-28T03:05:50.130Z,24.73
2022-08-28T03:06:57.948Z,24.71
2022-08-28T03:08:06.695Z,24.68
2022-08-28T03:09:15.554Z,24.64
2022-08-28T03:10:25.622Z,24.62
2022-08-28T03:11:33.887Z,24.58
2022-08-28T03:12:41.300Z,24.57
2022-08-28T03:13:49.255Z,24.54
2022-08-28T03:14:57.143Z,24.52
2022-08-28T03:16:06.598Z,24.50
2022-08-28T03:17:15.772Z,24.49
2022-08-28T03:18:24.353Z,24.48
2022-08-28T03:19:34.161Z,24.45
2022-08-28T03:20:41.924Z,24.43
2022-08-28T03:21:49.149Z,24.41
2022-08-28T03:23:19.166Z,24.39
2022-08-28T03:24:28.142Z,24.36
2022-08-28T03:25:35.990Z,24.31
2022-08-28T03:26:43.515Z,24.29
2022-08-28T03:27:51.876Z,24.28
2022-08-28T03:29:00.632Z,24.26
2022-08-28T03:30:09.093Z,24.23
2022-08-28T03:31:19.191Z,24.19
2022-08-28T03:32:29.319Z,24.16
2022-08-28T03:33:37.228Z,24.14
2022-08-28T03:34:44.391Z,24.11
2022-08-28T03:35:51.580Z,24.10
2022-08-28T03:36:59.570Z,24.07
2022-08-28T03:38:07.580Z,24.05
2022-08-28T03:39:17.214Z,24.02
2022-08-28T03:40:25.097Z,23.99
2022-08-28T03:41:32.525Z,23.97
2022-08-28T03:42:39.764Z,23.95
2022-08-28T03:43:46.850Z,23.93
2022-08-28T03:44:55.970Z,23.92
2022-08-28T03:46:06.159Z,23.90
2022-08-28T03:47:14.202Z,23.88
2022-08-28T03:48:22.895Z,23.87
2022-08-28T03:49:30.675Z,23.85
2022-08-28T03:50:38.087Z,23.85
2022-08-28T03:51:45.345Z,23.83
2022-08-28T03:52:52.608Z,23.81
2022-08-28T03:54:00.887Z,23.79
2022-08-28T03:55:10.592Z,23.78
2022-08-28T03:56:23.288Z,23.77
2022-08-28T03:57:31.649Z,23.76
2022-08-28T03:58:40.351Z,23.75
2022-08-28T03:59:51.126Z,23.74
2022-08-28T04:00:59.480Z,23.72
2022-08-28T04:02:07.583Z,23.71
2022-08-28T04:03:16.425Z,23.70
2022-08-28T04:04:24.810Z,23.67
2022-08-28T04:05:32.600Z,23.66
2022-08-28T04:06:40.156Z,23.63
2022-08-28T04:07:47.226Z,23.62
2022-08-28T04:08:55.173Z,23.60
2022-08-28T04:10:09.520Z,23.58
2022-08-28T04:11:18.629Z,23.57
2022-08-28T04:12:27.355Z,23.54
2022-08-28T04:13:36.744Z,23.52
2022-08-28T04:14:43.784Z,23.48
2022-08-28T04:16:06.368Z,23.44
2022-08-28T04:17:14.205Z,23.41
2022-08-28T04:18:21.333Z,23.36
2022-08-28T04:19:28.505Z,23.34
2022-08-28T04:20:36.513Z,23.31
2022-08-28T04:21:44.144Z,23.28
2022-08-28T04:22:53.012Z,23.26
2022-08-28T04:24:05.831Z,23.23
2022-08-28T04:25:18.444Z,23.18
2022-08-28T04:26:27.085Z,23.16
2022-08-28T04:27:36.290Z,23.14
2022-08-28T04:28:43.528Z,23.12
2022-08-28T04:29:51.539Z,23.10
2022-08-28T04:30:58.962Z,23.09
2022-08-28T04:32:06.267Z,23.06
2022-08-28T04:33:13.563Z,23.04
2022-08-28T04:34:20.937Z,23.01
2022-08-28T04:35:28.649Z,22.98
2022-08-28T04:36:36.529Z,22.97
2022-08-28T04:37:45.031Z,22.96
2022-08-28T04:38:52.824Z,22.92
2022-08-28T04:40:01.559Z,22.91
2022-08-28T04:41:10.996Z,22.89
2022-08-28T04:42:19.526Z,22.88
2022-08-28T04:43:27.603Z,22.87
2022-08-28T04:44:35.816Z,22.84
2022-08-28T04:45:46.784Z,22.81
2022-08-28T04:46:55.313Z,22.81
2022-08-28T04:48:11.387Z,22.79
2022-08-28T04:49:21.701Z,22.77
2022-08-28T04:50:33.928Z,22.77
2022-08-28T04:51:47.648Z,22.74
2022-08-28T04:52:55.761Z,22.74
2022-08-28T04:54:04.762Z,22.72
2022-08-28T04:55:12.480Z,22.70
2022-08-28T04:56:19.720Z,22.69
2022-08-28T04:57:27.684Z,22.69
2022-08-28T04:58:36.693Z,22.69
2022-08-28T04:59:46.384Z,22.68
2022-08-28T05:00:53.643Z,22.67
2022-08-28T05:02:01.386Z,22.65
2022-08-28T05:03:08.715Z,22.64
2022-08-28T05:04:16.020Z,22.63
2022-08-28T05:05:23.253Z,22.60
2022-08-28T05:06:33.926Z,22.57
2022-08-28T05:07:41.112Z,22.55
2022-08-28T05:08:52.676Z,22.53
2022-08-28T05:09:59.852Z,22.50
2022-08-28T05:11:13.535Z,22.47
2022-08-28T05:12:37.460Z,22.43
2022-08-28T05:13:44.833Z,22.39
2022-08-28T05:14:53.165Z,22.36
2022-08-28T05:16:02.093Z,22.35
2022-08-28T05:17:10.630Z,22.31
2022-08-28T05:18:19.076Z,22.29
2022-08-28T05:19:27.471Z,22.28
2022-08-28T05:20:41.364Z,22.25
2022-08-28T05:21:49.217Z,22.22
2022-08-28T05:22:57.542Z,22.19
2022-08-28T05:24:06.276Z,22.16
2022-08-28T05:25:16.691Z,22.14
2022-08-28T05:26:27.067Z,22.11
2022-08-28T05:27:37.101Z,22.09
2022-08-28T05:28:44.293Z,22.07
2022-08-28T05:29:52.414Z,22.04
2022-08-28T05:30:59.575Z,22.01
2022-08-28T05:32:07.044Z,22.00
2022-08-28T05:33:15.246Z,21.98
2022-08-28T05:34:22.394Z,21.94
2022-08-28T05:35:29.642Z,21.90
2022-08-28T05:36:38.065Z,21.88
2022-08-28T05:37:45.320Z,21.87
2022-08-28T05:38:54.541Z,21.83
2022-08-28T05:40:01.705Z,21.79
2022-08-28T05:41:09.794Z,21.76
2022-08-28T05:42:17.014Z,21.75
2022-08-28T05:43:24.377Z,21.73
2022-08-28T05:44:34.712Z,21.72
2022-08-28T05:45:42.041Z,21.70
2022-08-28T05:46:52.403Z,21.65
2022-08-28T05:47:59.551Z,21.61
2022-08-28T05:49:09.855Z,21.59
2022-08-28T05:50:18.085Z,21.56
2022-08-28T05:51:30.256Z,21.53
2022-08-28T05:52:37.939Z,21.50
2022-08-28T05:53:45.798Z,21.48
2022-08-28T05:54:53.194Z,21.45
2022-08-28T05:56:00.384Z,21.42
2022-08-28T05:57:07.891Z,21.40
2022-08-28T05:58:35.215Z,21.38
2022-08-28T05:59:42.244Z,21.35
2022-08-28T06:00:49.611Z,21.34
2022-08-28T06:01:59.845Z,21.33
2022-08-28T06:03:11.402Z,21.30
2022-08-28T06:04:20.645Z,21.29
2022-08-28T06:05:27.807Z,21.29
2022-08-28T06:06:39.613Z,21.29
2022-08-28T06:07:47.641Z,21.26
2022-08-28T06:09:01.637Z,21.23
2022-08-28T06:10:10.600Z,21.21
2022-08-28T06:11:23.665Z,21.19
2022-08-28T06:12:32.115Z,21.16
2022-08-28T06:13:42.170Z,21.13
2022-08-28T06:14:50.994Z,21.10
2022-08-28T06:15:58.415Z,21.08
2022-08-28T06:17:06.429Z,21.05
2022-08-28T06:18:14.377Z,21.04
2022-08-28T06:19:22.515Z,21.02
2022-08-28T06:20:31.315Z,21.00
2022-08-28T06:21:42.436Z,20.98
2022-08-28T06:22:52.743Z,20.94
2022-08-28T06:24:00.053Z,20.93
2022-08-28T06:25:08.895Z,20.90
2022-08-28T06:26:16.175Z,20.86
2022-08-28T06:27:25.894Z,20.83
2022-08-28T06:28:32.674Z,20.80
2022-08-28T06:29:41.129Z,20.78
2022-08-28T06:31:02.934Z,20.77
2022-08-28T06:32:18.228Z,20.74
2022-08-28T06:33:26.206Z,20.72
2022-08-28T06:34:36.115Z,20.71
2022-08-28T06:35:45.097Z,20.69
2022-08-28T06:36:54.237Z,20.65
2022-08-28T06:38:02.882Z,20.63
2022-08-28T06:39:13.093Z,20.61
2022-08-28T06:40:20.991Z,20.58
2022-08-28T06:41:31.253Z,20.56
2022-08-28T06:42:38.721Z,20.53
2022-08-28T06:43:48.973Z,20.52
2022-08-28T06:44:57.301Z,20.51
2022-08-28T06:46:06.143Z,20.49
2022-08-28T06:47:16.535Z,20.50
2022-08-28T06:48:26.910Z,20.47
2022-08-28T06:49:37.572Z,20.43
2022-08-28T06:50:46.505Z,20.39
2022-08-28T06:51:54.073Z,20.38
2022-08-28T06:53:03.102Z,20.37
2022-08-28T06:54:11.614Z,20.35
2022-08-28T06:55:20.115Z,20.34
2022-08-28T06:56:29.546Z,20.31
2022-08-28T06:57:37.672Z,20.29
2022-08-28T06:58:50.315Z,20.28
2022-08-28T07:00:00.159Z,20.26
2022-08-28T07:01:14.281Z,20.25
2022-08-28T07:02:23.411Z,20.22
2022-08-28T07:03:37.092Z,20.21
2022-08-28T07:04:54.149Z,20.19
2022-08-28T07:06:01.370Z,20.17
2022-08-28T07:07:10.357Z,20.17
2022-08-28T07:08:28.276Z,20.14
2022-08-28T07:09:36.549Z,20.13
2022-08-28T07:10:44.563Z,20.11
2022-08-28T07:11:52.291Z,20.11
2022-08-28T07:13:01.791Z,20.09
2022-08-28T07:14:09.080Z,20.06
2022-08-28T07:15:17.279Z,20.04
2022-08-28T07:16:27.089Z,20.02
2022-08-28T07:17:35.080Z,20.01
2022-08-28T07:18:42.254Z,20.01
2022-08-28T07:19:49.209Z,19.99
2022-08-28T07:21:00.723Z,19.98
2022-08-28T07:22:10.226Z,19.97
2022-08-28T07:23:18.638Z,19.98
2022-08-28T07:24:27.488Z,19.98
2022-08-28T07:25:35.256Z,19.97
2022-08-28T07:26:43.106Z,19.95
2022-08-28T07:27:50.087Z,19.94
2022-08-28T07:29:09.596Z,19.91
2022-08-28T07:30:19.274Z,19.89
2022-08-28T07:31:29.609Z,19.89
2022-08-28T07:32:38.225Z,19.88
2022-08-28T07:33:46.194Z,19.87
2022-08-28T07:34:53.856Z,19.86
2022-08-28T07:36:02.305Z,19.84
2022-08-28T07:37:15.118Z,19.83
2022-08-28T07:38:24.679Z,19.81
2022-08-28T07:39:32.274Z,19.80
2022-08-28T07:40:39.378Z,19.79
2022-08-28T07:41:46.525Z,19.79
2022-08-28T07:43:11.912Z,19.79
2022-08-28T07:44:37.782Z,19.76
2022-08-28T07:45:44.868Z,19.76
2022-08-28T07:47:01.098Z,19.75
2022-08-28T07:48:11.603Z,19.73
2022-08-28T07:49:20.287Z,19.74
2022-08-28T07:50:28.561Z,19.72
2022-08-28T07:51:35.392Z,19.70
2022-08-28T07:52:42.440Z,19.70
2022-08-28T07:53:49.848Z,19.68
2022-08-28T07:54:57.561Z,19.66
2022-08-28T07:56:04.910Z,19.66
2022-08-28T07:57:12.021Z,19.63
2022-08-28T07:58:20.137Z,19.61
2022-08-28T07:59:29.571Z,19.60
2022-08-28T08:00:44.150Z,19.58
2022-08-28T08:01:51.997Z,19.55
2022-08-28T08:02:59.707Z,19.55
2022-08-28T08:04:11.349Z,19.52
2022-08-28T08:05:18.688Z,19.50
2022-08-28T08:06:28.860Z,19.47
2022-08-28T08:07:41.997Z,19.44
2022-08-28T08:08:51.480Z,19.43
2022-08-28T08:09:58.601Z,19.42
2022-08-28T08:11:13.879Z,19.40
2022-08-28T08:12:24.208Z,19.39
2022-08-28T08:13:33.112Z,19.39
2022-08-28T08:14:40.792Z,19.38
2022-08-28T08:15:47.619Z,19.33
2022-08-28T08:16:54.985Z,19.33
2022-08-28T08:18:02.663Z,19.31
2022-08-28T08:19:16.781Z,19.30
2022-08-28T08:20:23.904Z,19.30
2022-08-28T08:21:31.388Z,19.31
2022-08-28T08:22:38.862Z,19.28
2022-08-28T08:23:47.110Z,19.26
2022-08-28T08:24:55.764Z,19.26
2022-08-28T08:26:04.781Z,19.25
2022-08-28T08:27:12.998Z,19.24
2022-08-28T08:28:22.671Z,19.24
2022-08-28T08:29:32.888Z,19.23
2022-08-28T08:30:40.838Z,19.21
2022-08-28T08:31:48.749Z,19.20
2022-08-28T08:32:56.670Z,19.19
2022-08-28T08:34:06.971Z,19.19
2022-08-28T08:35:15.430Z,19.18
2022-08-28T08:36:24.868Z,19.18
2022-08-28T08:37:32.780Z,19.17
2022-08-28T08:38:40.481Z,19.15
2022-08-28T08:39:47.959Z,19.15
2022-08-28T08:40:56.279Z,19.14
2022-08-28T08:42:06.029Z,19.13
2022-08-28T08:43:14.800Z,19.13
2022-08-28T08:44:44.780Z,19.13
2022-08-28T08:45:53.677Z,19.12
2022-08-28T08:47:25.143Z,19.13
2022-08-28T08:48:36.489Z,19.12
2022-08-28T08:50:09.457Z,19.10
2022-08-28T08:51:28.847Z,19.07
2022-08-28T08:52:42.557Z,19.05
2022-08-28T08:54:03.287Z,19.05
2022-08-28T08:55:27.416Z,19.03
2022-08-28T08:56:35.220Z,19.02
2022-08-28T08:57:43.113Z,19.01
2022-08-28T08:58:55.026Z,19.00
2022-08-28T09:00:02.229Z,18.99
2022-08-28T09:01:28.182Z,18.98
2022-08-28T09:02:40.952Z,18.97
2022-08-28T09:03:53.790Z,18.97
2022-08-28T09:05:07.068Z,18.95
2022-08-28T09:06:42.316Z,18.95
2022-08-28T09:08:03.700Z,18.95
2022-08-28T09:09:21.894Z,18.95
2022-08-28T09:10:46.928Z,18.94
2022-08-28T09:11:57.564Z,18.95
2022-08-28T09:13:33.125Z,18.93
2022-08-28T09:15:06.920Z,18.92
2022-08-28T09:16:26.120Z,18.91
2022-08-28T09:18:18.854Z,18.91
2022-08-28T09:19:26.024Z,18.91
2022-08-28T09:20:33.577Z,18.91
2022-08-28T09:21:44.876Z,18.92
2022-08-28T09:22:52.094Z,18.94
2022-08-28T09:24:05.814Z,18.92
2022-08-28T09:25:51.370Z,18.89
2022-08-28T09:27:01.422Z,18.88
2022-08-28T09:28:09.570Z,18.87
2022-08-28T09:29:20.956Z,18.86
2022-08-28T09:30:33.246Z,18.86
2022-08-28T09:31:43.285Z,18.86
2022-08-28T09:33:02.163Z,18.84
2022-08-28T09:34:24.034Z,18.85
2022-08-28T09:35:33.058Z,18.84
2022-08-28T09:36:40.857Z,18.81
2022-08-28T09:37:47.927Z,18.81
2022-08-28T09:39:12.010Z,18.83
2022-08-28T09:40:55.127Z,18.82
2022-08-28T09:42:43.263Z,18.79
2022-08-28T09:43:50.736Z,18.79
2022-08-28T09:45:09.572Z,18.79
2022-08-28T09:46:33.334Z,18.79
2022-08-28T09:47:50.843Z,18.77
2022-08-28T09:49:14.171Z,18.74
2022-08-28T09:50:31.881Z,18.74
2022-08-28T09:51:40.178Z,18.73
2022-08-28T09:52:47.677Z,18.73
2022-08-28T09:53:58.099Z,18.71
2022-08-28T09:55:06.511Z,18.69
2022-08-28T09:56:25.024Z,18.69
2022-08-28T09:57:32.027Z,18.68
2022-08-28T09:58:53.017Z,18.66
2022-08-28T10:00:00.068Z,18.68
2022-08-28T10:01:39.166Z,18.65
2022-08-28T10:02:59.516Z,18.65
2022-08-28T10:04:19.417Z,18.63
2022-08-28T10:05:40.228Z,18.61
2022-08-28T10:06:54.118Z,18.58
2022-08-28T10:08:06.457Z,18.57
2022-08-28T10:09:28.526Z,18.58
2022-08-28T10:10:38.397Z,18.59
2022-08-28T10:12:13.410Z,18.56
2022-08-28T10:13:38.090Z,18.53
2022-08-28T10:15:12.137Z,18.55
2022-08-28T10:16:26.127Z,18.52
2022-08-28T10:17:36.470Z,18.51
2022-08-28T10:18:59.087Z,18.51
2022-08-28T10:20:50.566Z,18.48
2022-08-28T10:22:05.058Z,18.47
2022-08-28T10:23:50.089Z,18.45
2022-08-28T10:25:12.758Z,18.42
2022-08-28T10:26:25.677Z,18.41
2022-08-28T10:27:41.039Z,18.40
2022-08-28T10:29:09.489Z,18.39
2022-08-28T10:30:22.897Z,18.41
2022-08-28T10:31:40.440Z,18.40
2022-08-28T10:33:27.289Z,18.41
2022-08-28T10:34:59.369Z,18.38
2022-08-28T10:36:34.212Z,18.36
2022-08-28T10:37:49.498Z,18.35
2022-08-28T10:39:10.406Z,18.35
2022-08-28T10:40:20.588Z,18.36
2022-08-28T10:41:33.786Z,18.35
2022-08-28T10:42:44.642Z,18.35
2022-08-28T10:43:53.377Z,18.36
2022-08-28T10:45:11.315Z,18.36
2022-08-28T10:46:46.267Z,18.37
2022-08-28T10:48:01.143Z,18.37
2022-08-28T10:49:22.032Z,18.37
2022-08-28T10:50:43.940Z,18.38
2022-08-28T10:51:52.234Z,18.38
2022-08-28T10:53:44.451Z,18.38
2022-08-28T10:55:08.122Z,18.37
2022-08-28T10:56:25.280Z,18.37
2022-08-28T10:57:46.364Z,18.36
2022-08-28T10:58:56.805Z,18.34
2022-08-28T11:00:15.241Z,18.33
2022-08-28T11:01:42.583Z,18.31
2022-08-28T11:02:54.462Z,18.28
2022-08-28T11:04:04.662Z,18.25
2022-08-28T11:05:13.767Z,18.24
2022-08-28T11:06:35.135Z,18.25
2022-08-28T11:07:46.283Z,18.23
2022-08-28T11:08:58.174Z,18.22
2022-08-28T11:10:26.234Z,18.21
2022-08-28T11:11:48.002Z,18.21
2022-08-28T11:12:56.240Z,18.21
2022-08-28T11:14:04.355Z,18.20
2022-08-28T11:15:42.094Z,18.20
2022-08-28T11:16:51.394Z,18.19
2022-08-28T11:18:20.468Z,18.20
2022-08-28T11:19:51.649Z,18.20
2022-08-28T11:21:12.344Z,18.19
2022-08-28T11:22:24.786Z,18.18
2022-08-28T11:24:14.964Z,18.17
2022-08-28T11:25:32.587Z,18.15
2022-08-28T11:26:48.913Z,18.15
2022-08-28T11:28:18.944Z,18.14
2022-08-28T11:30:00.104Z,18.15
2022-08-28T11:31:08.141Z,18.14
2022-08-28T11:32:39.025Z,18.14
2022-08-28T11:33:54.331Z,18.13
2022-08-28T11:35:20.573Z,18.13
2022-08-28T11:36:29.583Z,18.13
2022-08-28T11:37:50.134Z,18.12
2022-08-28T11:38:56.983Z,18.12
2022-08-28T11:40:19.674Z,18.11
2022-08-28T11:41:29.513Z,18.11
2022-08-28T11:42:39.753Z,18.11
2022-08-28T11:43:46.983Z,18.11
2022-08-28T11:44:54.063Z,18.13
2022-08-28T11:46:01.641Z,18.14
2022-08-28T11:47:45.853Z,18.13
2022-08-28T11:48:58.386Z,18.10
2022-08-28T11:50:14.263Z,18.08
2022-08-28T11:51:39.986Z,18.09
2022-08-28T11:52:50.223Z,18.08
2022-08-28T11:54:12.643Z,18.08
2022-08-28T11:55:26.191Z,18.09
2022-08-28T11:56:52.663Z,18.09
2022-08-28T11:59:34.967Z,18.08
2022-08-28T12:00:53.321Z,18.09
2022-08-28T12:02:26.085Z,18.09
2022-08-28T12:03:51.532Z,18.09
2022-08-28T12:04:58.991Z,18.09
2022-08-28T12:06:06.116Z,18.08
2022-08-28T12:07:17.903Z,18.08
2022-08-28T12:08:50.157Z,18.07
2022-08-28T12:10:00.676Z,18.07
2022-08-28T12:11:10.946Z,18.08
2022-08-28T12:12:44.680Z,18.07
2022-08-28T12:13:53.532Z,18.05
2022-08-28T12:15:09.381Z,18.03
2022-08-28T12:16:17.806Z,18.02
2022-08-28T12:17:30.542Z,18.01
2022-08-28T12:18:44.319Z,18.02
2022-08-28T12:20:12.682Z,18.04
2022-08-28T12:21:25.291Z,18.03
2022-08-28T12:22:55.292Z,18.02
2022-08-28T12:24:09.906Z,18.03
2022-08-28T12:25:38.719Z,18.03
2022-08-28T12:26:47.574Z,18.02
2022-08-28T12:27:54.608Z,18.01
2022-08-28T12:29:07.008Z,18.02
2022-08-28T12:30:16.401Z,18.05
2022-08-28T12:31:51.897Z,18.07
2022-08-28T12:33:15.358Z,18.06
2022-08-28T12:34:35.359Z,18.04
2022-08-28T12:35:43.899Z,18.04
2022-08-28T12:36:59.350Z,18.04
2022-08-28T12:38:11.045Z,18.06
2022-08-28T12:39:20.327Z,18.05
2022-08-28T12:40:54.797Z,18.06
2022-08-28T12:42:04.378Z,18.07
2022-08-28T12:43:15.512Z,18.08
2022-08-28T12:44:28.668Z,18.08
2022-08-28T12:45:40.687Z,18.08
2022-08-28T12:46:50.660Z,18.11
2022-08-28T12:48:03.310Z,18.14
2022-08-28T12:49:32.299Z,18.14
2022-08-28T12:50:40.199Z,18.18
2022-08-28T12:51:47.047Z,18.19
2022-08-28T12:52:57.147Z,18.20
2022-08-28T12:54:09.784Z,18.22
2022-08-28T12:55:20.315Z,18.23
2022-08-28T12:56:37.936Z,18.25
2022-08-28T12:57:49.395Z,18.26
2022-08-28T12:58:57.458Z,18.28
2022-08-28T13:00:20.348Z,18.30
2022-08-28T13:01:34.197Z,18.32
2022-08-28T13:02:43.933Z,18.35
2022-08-28T13:04:01.137Z,18.37
2022-08-28T13:05:13.405Z,18.39
2022-08-28T13:06:35.369Z,18.42
2022-08-28T13:07:48.877Z,18.45
2022-08-28T13:09:08.977Z,18.47
2022-08-28T13:10:47.186Z,18.46
2022-08-28T13:11:54.613Z,18.48
2022-08-28T13:13:15.321Z,18.51
2022-08-28T13:14:59.369Z,18.53
2022-08-28T13:16:11.732Z,18.55
2022-08-28T13:17:43.386Z,18.57
2022-08-28T13:18:56.499Z,18.59
2022-08-28T13:20:09.383Z,18.61
2022-08-28T13:21:30.819Z,18.63
2022-08-28T13:22:50.657Z,18.66
2022-08-28T13:24:01.786Z,18.69
2022-08-28T13:25:11.552Z,18.73
2022-08-28T13:26:28.338Z,18.77
2022-08-28T13:27:35.973Z,18.76
2022-08-28T13:28:47.543Z,18.77
2022-08-28T13:30:36.353Z,18.79
2022-08-28T13:31:45.264Z,18.84
2022-08-28T13:33:03.826Z,18.85
2022-08-28T13:34:24.199Z,18.81
2022-08-28T13:35:35.122Z,18.80
2022-08-28T13:36:50.560Z,18.85
2022-08-28T13:38:10.418Z,18.89
2022-08-28T13:39:19.549Z,18.88
2022-08-28T13:40:59.140Z,18.84
2022-08-28T13:42:16.180Z,18.83
2022-08-28T13:43:26.067Z,18.87
2022-08-28T13:44:39.247Z,18.92
2022-08-28T13:45:49.707Z,18.95
2022-08-28T13:46:58.455Z,18.94
2022-08-28T13:48:07.557Z,18.94
2022-08-28T13:49:16.579Z,18.98
2022-08-28T13:50:25.646Z,18.98
2022-08-28T13:51:34.413Z,18.97
2022-08-28T13:52:47.519Z,19.00
2022-08-28T13:53:55.208Z,19.04
2022-08-28T13:55:04.971Z,19.08
2022-08-28T13:56:15.374Z,19.10
2022-08-28T13:57:25.908Z,19.12
2022-08-28T13:58:34.576Z,19.16
2022-08-28T13:59:42.597Z,19.21
2022-08-28T14:00:50.947Z,19.25
2022-08-28T14:02:19.107Z,19.28
2022-08-28T14:03:40.627Z,19.31
2022-08-28T14:04:48.198Z,19.28
2022-08-28T14:05:56.154Z,19.29
2022-08-28T14:07:03.626Z,19.29
2022-08-28T14:08:12.207Z,19.34
2022-08-28T14:09:20.695Z,19.37
2022-08-28T14:10:30.734Z,19.38
2022-08-28T14:11:38.464Z,19.43
2022-08-28T14:12:48.897Z,19.50
2022-08-28T14:13:56.612Z,19.51
2022-08-28T14:15:04.623Z,19.55
2022-08-28T14:16:14.821Z,19.61
2022-08-28T14:17:23.151Z,19.60
2022-08-28T14:18:33.313Z,19.63
2022-08-28T14:19:41.240Z,19.64
2022-08-28T14:20:49.301Z,19.66
2022-08-28T14:21:57.073Z,19.70
2022-08-28T14:23:05.986Z,19.73
2022-08-28T14:24:15.164Z,19.78
2022-08-28T14:25:24.132Z,19.83
2022-08-28T14:26:32.368Z,19.82
2022-08-28T14:27:40.063Z,19.82
2022-08-28T14:28:47.367Z,19.87
2022-08-28T14:29:54.739Z,19.89
2022-08-28T14:31:03.090Z,19.94
2022-08-28T14:32:11.984Z,19.90
2022-08-28T14:33:21.342Z,19.90
2022-08-28T14:34:30.382Z,19.90
2022-08-28T14:35:41.745Z,19.90
2022-08-28T14:36:52.382Z,19.94
2022-08-28T14:38:00.374Z,19.99
2022-08-28T14:39:09.215Z,20.00
2022-08-28T14:40:17.989Z,19.97
2022-08-28T14:41:27.454Z,19.97
2022-08-28T14:42:36.163Z,19.94
2022-08-28T14:43:45.746Z,19.96
2022-08-28T14:44:54.821Z,20.00
2022-08-28T14:46:03.326Z,20.04
2022-08-28T14:47:11.454Z,20.09
2022-08-28T14:48:20.574Z,20.09
2022-08-28T14:49:29.924Z,20.10
2022-08-28T14:50:44.285Z,20.15
2022-08-28T14:51:51.847Z,20.19
2022-08-28T14:52:59.623Z,20.23
2022-08-28T14:54:08.094Z,20.27
2022-08-28T14:55:18.648Z,20.32
2022-08-28T14:56:28.184Z,20.36
2022-08-28T14:57:40.163Z,20.37
2022-08-28T14:58:49.387Z,20.40
2022-08-28T14:59:56.220Z,20.48
2022-08-28T15:01:04.377Z,20.45
2022-08-28T15:02:15.282Z,20.54
2022-08-28T15:03:23.614Z,20.57
2022-08-28T15:04:37.408Z,20.55
2022-08-28T15:05:44.721Z,20.47
2022-08-28T15:06:53.199Z,20.46
2022-08-28T15:08:01.677Z,20.46
2022-08-28T15:09:11.518Z,20.48
2022-08-28T15:10:22.422Z,20.49
2022-08-28T15:11:30.966Z,20.56
2022-08-28T15:12:39.144Z,20.61
2022-08-28T15:13:51.364Z,20.67
2022-08-28T15:14:59.235Z,20.73
2022-08-28T15:16:15.829Z,20.76
2022-08-28T15:17:34.238Z,20.74
2022-08-28T15:18:45.826Z,20.80
2022-08-28T15:19:53.102Z,20.90
2022-08-28T15:21:00.903Z,20.92
2022-08-28T15:22:08.982Z,20.85
2022-08-28T15:23:18.751Z,20.84
2022-08-28T15:24:32.728Z,20.91
2022-08-28T15:25:40.545Z,20.90
2022-08-28T15:26:48.226Z,20.96
2022-08-28T15:27:55.301Z,20.96
2022-08-28T15:29:08.581Z,21.02
2022-08-28T15:30:16.976Z,21.17